createdAt,value
2018-07-08T00:02:54.566Z,7.13
2018-07-08T00:06:55.161Z,9.32
2018-07-08T00:12:55.657Z,11.12
2018-07-08T00:16:56.344Z,7.74
2018-07-08T00:18:56.821Z,8.56
2018-07-08T00:22:57.443Z,8.26
2018-07-08T00:28:57.992Z,8.65
2018-07-08T00:32:58.666Z,9.01
2018-07-08T00:38:59.328Z,8.77
2018-07-08T00:44:59.906Z,8.24
2018-07-08T00:49:00.534Z,7.78
2018-07-08T00:55:01.186Z,7.88
2018-07-08T00:59:01.719Z,9.34
2018-07-08T01:05:02.431Z,8.52
2018-07-08T01:11:02.986Z,6.86
2018-07-08T01:15:03.600Z,6.32
2018-07-08T01:21:04.228Z,7.63
2018-07-08T01:25:04.795Z,7.48
2018-07-08T01:27:05.372Z,8.01
2018-07-08T01:31:05.946Z,8.41
2018-07-08T01:37:06.662Z,6.11
2018-07-08T01:41:07.197Z,6.03
2018-07-08T01:47:07.737Z,6.56
2018-07-08T01:51:08.329Z,7.68
2018-07-08T01:53:09.110Z,5.95
2018-07-08T01:57:09.631Z,6.31
2018-07-08T02:03:10.179Z,6.56
2018-07-08T02:07:10.769Z,6.91
2018-07-08T02:13:11.335Z,7.43
2018-07-08T02:17:11.926Z,6.88
2018-07-08T02:19:12.459Z,8.16
2018-07-08T02:23:13.029Z,7.7
2018-07-08T02:29:13.641Z,6.12
2018-07-08T02:33:14.214Z,6.45
2018-07-08T02:39:14.842Z,7.31
2018-07-08T02:45:15.854Z,7.15
2018-07-08T02:49:16.503Z,7.16
2018-07-08T02:55:17.062Z,6.71
2018-07-08T02:59:17.738Z,8.74
2018-07-08T03:05:18.204Z,6.95
2018-07-08T03:11:18.805Z,7.13
2018-07-08T03:15:19.721Z,7.32
2018-07-08T03:21:20.391Z,7
2018-07-08T03:25:21.054Z,7.48
2018-07-08T03:27:21.595Z,7.1
2018-07-08T03:31:22.146Z,6.06
2018-07-08T03:37:22.773Z,5.98
2018-07-08T03:41:23.369Z,7.12
2018-07-08T03:47:23.960Z,8.8
2018-07-08T03:51:24.661Z,8.17
2018-07-08T03:53:25.152Z,7.1
2018-07-08T03:57:25.793Z,7.03
2018-07-08T04:03:26.463Z,7.97
2018-07-08T04:07:26.991Z,8.15
2018-07-08T04:13:27.570Z,9.03
2018-07-08T04:17:28.221Z,6.88
2018-07-08T04:19:28.726Z,8.72
2018-07-08T04:23:29.435Z,7.48
2018-07-08T04:29:29.979Z,7.22
2018-07-08T04:33:30.575Z,7.51
2018-07-08T04:39:31.177Z,7.94
2018-07-08T04:45:31.819Z,7.84
2018-07-08T04:49:32.446Z,7
2018-07-08T04:55:33.080Z,6.8
2018-07-08T04:59:33.769Z,6.74
2018-07-08T05:05:34.283Z,7.55
2018-07-08T05:11:34.973Z,7.05
2018-07-08T05:15:35.573Z,7.81
2018-07-08T05:21:36.346Z,6.84
2018-07-08T05:25:36.937Z,6.37
2018-07-08T05:27:37.456Z,8.94
2018-07-08T05:31:38.062Z,7.08
2018-07-08T05:37:38.794Z,7.8
2018-07-08T05:41:39.444Z,7.14
2018-07-08T05:47:40.022Z,7.8
2018-07-08T05:51:40.596Z,7.04
2018-07-08T05:53:41.240Z,7.15
2018-07-08T05:57:41.746Z,7.59
2018-07-08T06:03:42.295Z,5.54
2018-07-08T06:07:42.850Z,7.32
2018-07-08T06:13:43.484Z,9.58
2018-07-08T06:19:43.971Z,8.61
2018-07-08T06:23:44.554Z,9.33
2018-07-08T06:29:45.109Z,8.22
2018-07-08T06:33:45.843Z,10.85
2018-07-08T06:39:46.389Z,9.88
2018-07-08T06:45:46.984Z,10.09
2018-07-08T06:49:47.550Z,9.04
2018-07-08T06:55:48.174Z,7.71
2018-07-08T06:59:48.863Z,9.66
2018-07-08T07:05:49.467Z,8.99
2018-07-08T07:11:50.034Z,8.9
2018-07-08T07:15:50.607Z,8.68
2018-07-08T07:21:51.226Z,8.77
2018-07-08T07:25:51.909Z,8.31
2018-07-08T07:27:52.435Z,9.75
2018-07-08T07:31:53.078Z,11.19
2018-07-08T07:37:53.657Z,8.93
2018-07-08T07:41:54.265Z,9.51
2018-07-08T07:47:54.919Z,10.23
2018-07-08T07:51:55.596Z,11.63
2018-07-08T07:53:56.163Z,10.06
2018-07-08T07:57:56.848Z,10.03
2018-07-08T08:03:57.519Z,6.66
2018-07-08T08:07:58.104Z,8.3
2018-07-08T08:13:58.784Z,8.67
2018-07-08T08:19:59.416Z,8.07
2018-07-08T08:23:59.957Z,7.3
2018-07-08T08:30:00.647Z,8.68
2018-07-08T08:34:01.227Z,8.01
2018-07-08T08:40:01.919Z,7.11
2018-07-08T08:46:02.463Z,7.54
2018-07-08T08:50:03.007Z,9.39
2018-07-08T08:56:03.468Z,6.35
2018-07-08T09:00:04.164Z,7.4
2018-07-08T09:02:04.486Z,5.69
2018-07-08T09:06:05.068Z,6.84
2018-07-08T09:12:05.729Z,7.32
2018-07-08T09:16:06.291Z,6.77
2018-07-08T09:22:06.939Z,8.1
2018-07-08T09:26:07.600Z,8.34
2018-07-08T09:28:08.169Z,6.05
2018-07-08T09:32:08.960Z,7.86
2018-07-08T09:38:09.618Z,7.28
2018-07-08T09:42:10.197Z,7.55
2018-07-08T09:48:10.920Z,7.41
2018-07-08T09:52:11.531Z,8.37
2018-07-08T09:54:12.162Z,6.21
2018-07-08T09:58:12.762Z,8.74
2018-07-08T10:04:13.276Z,5.43
2018-07-08T10:08:13.824Z,6.71
2018-07-08T10:14:14.517Z,5.91
2018-07-08T10:20:15.120Z,5.2
2018-07-08T10:24:15.660Z,4.49
2018-07-08T10:30:16.627Z,5.12
2018-07-08T10:34:17.133Z,5.51
2018-07-08T10:40:17.819Z,5.75
2018-07-08T10:46:18.460Z,5.84
2018-07-08T10:50:18.931Z,5.31
2018-07-08T10:56:19.545Z,5.18
2018-07-08T11:00:20.478Z,4.75
2018-07-08T11:02:21.051Z,5.55
2018-07-08T11:06:21.532Z,4.47
2018-07-08T11:12:22.204Z,5.48
2018-07-08T11:16:22.719Z,5.52
2018-07-08T11:22:23.363Z,4.51
2018-07-08T11:26:23.923Z,5.2
2018-07-08T11:28:24.526Z,4.11
2018-07-08T11:32:25.051Z,4.71
2018-07-08T11:38:25.644Z,4.56
2018-07-08T11:42:26.333Z,3.64
2018-07-08T11:48:26.944Z,5.07
2018-07-08T11:54:28.014Z,5.58
2018-07-08T11:58:28.572Z,5.24
2018-07-08T12:04:29.216Z,4.4
2018-07-08T12:08:29.807Z,3.98
2018-07-08T12:14:30.478Z,5.18
2018-07-08T12:20:31.015Z,4.68
2018-07-08T12:24:31.646Z,4.9
2018-07-08T12:30:32.114Z,4.27
2018-07-08T12:34:32.707Z,4.88
2018-07-08T12:36:33.215Z,5.17
2018-07-08T12:40:33.717Z,5.32
2018-07-08T12:46:34.338Z,4.64
2018-07-08T12:50:34.942Z,4.1
2018-07-08T12:56:35.444Z,5.15
2018-07-08T13:00:36.098Z,4.49
2018-07-08T13:02:36.649Z,4.35
2018-07-08T13:06:37.292Z,4.98
2018-07-08T13:12:37.867Z,5.14
2018-07-08T13:16:38.645Z,6.62
2018-07-08T13:22:39.295Z,5.26
2018-07-08T13:28:39.935Z,6.64
2018-07-08T13:32:40.555Z,6.59
2018-07-08T13:38:41.106Z,5.31
2018-07-08T13:42:41.693Z,5.37
2018-07-08T13:48:42.405Z,5.58
2018-07-08T13:54:43.043Z,5.72
2018-07-08T13:58:43.679Z,5.44
2018-07-08T14:04:44.268Z,5.62
2018-07-08T14:08:44.858Z,5.9
2018-07-08T14:10:45.475Z,6.15
2018-07-08T14:14:46.056Z,6.5
2018-07-08T14:20:46.720Z,4.78
2018-07-08T14:24:47.278Z,6.49
2018-07-08T14:30:47.883Z,5.77
2018-07-08T14:34:48.537Z,5.39
2018-07-08T14:36:49.072Z,6.11
2018-07-08T14:40:49.920Z,5.65
2018-07-08T14:46:50.472Z,5.29
2018-07-08T14:50:51.058Z,5.87
2018-07-08T14:56:51.615Z,5.46
2018-07-08T15:02:52.207Z,4.7
2018-07-08T15:06:52.855Z,4.96
2018-07-08T15:12:53.378Z,5.76
2018-07-08T15:16:53.935Z,5.19
2018-07-08T15:22:54.621Z,5.48
2018-07-08T15:28:55.180Z,5.41
2018-07-08T15:32:55.802Z,5.08
2018-07-08T15:38:56.422Z,4.64
2018-07-08T15:42:57.001Z,4.93
2018-07-08T15:44:57.539Z,4.86
2018-07-08T15:48:58.164Z,4.72
2018-07-08T15:54:59.302Z,5.48
2018-07-08T15:58:59.827Z,5.62
2018-07-08T16:05:00.468Z,5.8
2018-07-08T16:09:01.088Z,5.44
2018-07-08T16:11:01.661Z,6.06
2018-07-08T16:15:02.218Z,6.23
2018-07-08T16:21:02.801Z,4.88
2018-07-08T16:25:03.404Z,5.61
2018-07-08T16:31:03.990Z,4.63
2018-07-08T16:37:04.597Z,6.66
2018-07-08T16:41:05.409Z,6.19
2018-07-08T16:47:05.921Z,5.07
2018-07-08T16:51:06.577Z,5.83
2018-07-08T16:57:07.190Z,5.05
2018-07-08T17:03:07.778Z,6.77
2018-07-08T17:07:09.722Z,7.47
2018-07-08T17:13:10.403Z,6.2
2018-07-08T17:17:11.273Z,7.41
2018-07-08T17:19:11.876Z,5.88
2018-07-08T17:23:12.534Z,8.52
2018-07-08T17:29:13.218Z,7.19
2018-07-08T17:33:13.832Z,7.07
2018-07-08T17:39:14.393Z,6.51
2018-07-08T17:43:15.013Z,7.05
2018-07-08T17:45:15.724Z,9.03
2018-07-08T17:49:16.381Z,10.3
2018-07-08T17:55:17.094Z,7.28
2018-07-08T17:59:17.693Z,6.56
2018-07-08T18:05:18.282Z,5.68
2018-07-08T18:09:18.896Z,5.37
2018-07-08T18:11:19.445Z,5.75
2018-07-08T18:15:20.195Z,6.31
2018-07-08T18:21:23.858Z,5.77
2018-07-08T18:25:24.618Z,4.67
2018-07-08T18:31:25.318Z,5.65
2018-07-08T18:37:25.872Z,7
2018-07-08T18:41:26.506Z,7.6
2018-07-08T18:47:27.081Z,5.51
2018-07-08T18:51:27.712Z,5.38
2018-07-08T18:57:28.275Z,5.98
2018-07-08T19:03:28.903Z,5.12
2018-07-08T19:07:29.500Z,4.73
2018-07-08T19:13:30.198Z,5.58
2018-07-08T19:17:30.833Z,5.37
2018-07-08T19:19:31.461Z,5.44
2018-07-08T19:23:32.012Z,6.39
2018-07-08T19:29:32.651Z,5.07
2018-07-08T19:33:33.268Z,5.22
2018-07-08T19:39:34.143Z,5.28
2018-07-08T19:43:34.744Z,5.46
2018-07-08T19:45:35.305Z,5.48
2018-07-08T19:49:35.903Z,5.91
2018-07-08T19:55:36.529Z,6.42
2018-07-08T19:59:37.130Z,6.74
2018-07-08T20:05:37.881Z,6
2018-07-08T20:09:38.390Z,6.63
2018-07-08T20:11:39.130Z,6.56
2018-07-08T20:15:39.693Z,7.15
2018-07-08T20:21:40.381Z,7.88
2018-07-08T20:25:43.900Z,8.18
2018-07-08T20:31:44.487Z,7.35
2018-07-08T20:37:45.136Z,9.4
2018-07-08T20:41:45.775Z,8.83
2018-07-08T20:47:46.402Z,7.35
2018-07-08T20:51:46.990Z,9.66
2018-07-08T20:57:47.524Z,9.47
2018-07-08T21:03:48.114Z,7.18
2018-07-08T21:07:48.796Z,9.1
2018-07-08T21:13:49.404Z,9.14
2018-07-08T21:17:49.990Z,9.65
2018-07-08T21:19:50.595Z,9.43
2018-07-08T21:23:51.129Z,12.39
2018-07-08T21:29:51.994Z,8.79
2018-07-08T21:33:52.609Z,9.51
2018-07-08T21:39:53.190Z,9.48
2018-07-08T21:43:53.803Z,10.49
2018-07-08T21:45:54.387Z,8.86
2018-07-08T21:49:55.073Z,10.57
2018-07-08T21:55:55.612Z,11.3
2018-07-08T21:59:56.252Z,9.07
2018-07-08T22:05:56.915Z,9.74
2018-07-08T22:11:57.549Z,11
2018-07-08T22:15:58.155Z,9.71
2018-07-08T22:21:58.835Z,10.53
2018-07-08T22:25:59.409Z,9.35
2018-07-08T22:31:59.966Z,9.51
2018-07-08T22:38:00.700Z,7.36
2018-07-08T22:42:01.188Z,9.7
2018-07-08T22:48:01.799Z,8.35
2018-07-08T22:52:02.408Z,11.27
2018-07-08T22:58:03.038Z,9.86
2018-07-08T23:04:03.692Z,10.84
2018-07-08T23:08:04.247Z,9.77
2018-07-08T23:14:04.835Z,9.47
2018-07-08T23:18:05.399Z,10.65
2018-07-08T23:20:06.111Z,9.58
2018-07-08T23:24:06.712Z,10.15
2018-07-08T23:30:07.276Z,10.28
2018-07-08T23:34:07.822Z,10.36
2018-07-08T23:40:08.445Z,8.83
2018-07-08T23:44:09.116Z,9.82
2018-07-08T23:46:09.589Z,9.88
2018-07-08T23:50:10.272Z,10.49
2018-07-08T23:56:10.826Z,10.49
